createdAt,value
2019-03-24T00:00:12.646Z,100573.02
2019-03-24T00:02:41.752Z,100566.52
2019-03-24T00:05:10.866Z,100571.74
2019-03-24T00:07:39.947Z,100572.37
2019-03-24T00:10:09.076Z,100578.52
2019-03-24T00:12:37.996Z,100567.97
2019-03-24T00:15:09.148Z,100572.02
2019-03-24T00:17:38.106Z,100564.12
2019-03-24T00:20:10.141Z,100564.98
2019-03-24T00:22:38.795Z,100557.54
2019-03-24T00:25:08.386Z,100562.53
2019-03-24T00:27:37.346Z,100571.31
2019-03-24T00:30:08.546Z,100571.53
2019-03-24T00:32:37.707Z,100573.34
2019-03-24T00:35:08.068Z,100576.60
2019-03-24T00:37:37.187Z,100566.02
2019-03-24T00:40:09.507Z,100575.24
2019-03-24T00:42:39.426Z,100578.83
2019-03-24T00:45:09.148Z,100571.42
2019-03-24T00:47:37.989Z,100582.45
2019-03-24T00:50:08.067Z,100585.99
2019-03-24T00:52:37.159Z,100575.45
2019-03-24T00:55:07.426Z,100584.75
2019-03-24T00:57:37.627Z,100585.98
2019-03-24T01:00:11.832Z,100588.91
2019-03-24T01:02:40.814Z,100591.88
2019-03-24T01:05:10.066Z,100597.56
2019-03-24T01:07:39.227Z,100595.38
2019-03-24T01:10:08.787Z,100603.73
2019-03-24T01:12:37.827Z,100601.47
2019-03-24T01:15:08.278Z,100596.57
2019-03-24T01:17:38.514Z,100597.71
2019-03-24T01:20:08.633Z,100597.09
2019-03-24T01:22:37.866Z,100600.08
2019-03-24T01:25:07.308Z,100603.48
2019-03-24T01:27:36.227Z,100602.03
2019-03-24T01:30:07.508Z,100598.25
2019-03-24T01:32:36.549Z,100596.69
2019-03-24T01:35:07.147Z,100599.86
2019-03-24T01:37:36.266Z,100591.05
2019-03-24T01:40:07.787Z,100602.09
2019-03-24T01:42:36.932Z,100603.11
2019-03-24T01:45:08.509Z,100610.23
2019-03-24T01:47:37.427Z,100607.30
2019-03-24T01:50:09.988Z,100610.02
2019-03-24T01:52:39.187Z,100599.63
2019-03-24T01:55:08.547Z,100601.50
2019-03-24T01:57:37.467Z,100604.48
2019-03-24T02:00:09.707Z,100594.95
2019-03-24T02:02:38.756Z,100606.84
2019-03-24T02:05:08.317Z,100599.36
2019-03-24T02:07:37.306Z,100592.40
2019-03-24T02:10:10.146Z,100605.53
2019-03-24T02:12:39.226Z,100607.60
2019-03-24T02:15:09.666Z,100610.69
2019-03-24T02:17:38.667Z,100614.08
2019-03-24T02:20:08.235Z,100612.69
2019-03-24T02:22:37.226Z,100607.38
2019-03-24T02:25:07.597Z,100611.81
2019-03-24T02:27:36.468Z,100611.38
2019-03-24T02:30:08.197Z,100609.70
2019-03-24T02:32:37.352Z,100614.53
2019-03-24T02:35:07.482Z,100620.73
2019-03-24T02:37:36.668Z,100625.20
2019-03-24T02:40:09.469Z,100627.59
2019-03-24T02:42:38.509Z,100635.94
2019-03-24T02:45:08.147Z,100633.37
2019-03-24T02:47:37.067Z,100643.64
2019-03-24T02:50:07.746Z,100639.66
2019-03-24T02:52:36.831Z,100644.03
2019-03-24T02:55:10.106Z,100641.46
2019-03-24T02:57:39.032Z,100640.59
2019-03-24T03:00:09.828Z,100640.27
2019-03-24T03:02:38.839Z,100638.14
2019-03-24T03:05:09.028Z,100637.31
2019-03-24T03:07:38.072Z,100634.73
2019-03-24T03:10:10.363Z,100638.32
2019-03-24T03:12:39.307Z,100632.19
2019-03-24T03:15:09.834Z,100633.92
2019-03-24T03:17:38.828Z,100632.69
2019-03-24T03:20:09.149Z,100628.69
2019-03-24T03:22:38.120Z,100634.88
2019-03-24T03:25:08.747Z,100638.50
2019-03-24T03:27:37.791Z,100639.82
2019-03-24T03:30:08.709Z,100635.02
2019-03-24T03:32:37.771Z,100641.53
2019-03-24T03:35:11.331Z,100641.98
2019-03-24T03:37:40.587Z,100641.14
2019-03-24T03:40:10.394Z,100639.77
2019-03-24T03:42:40.430Z,100640.61
2019-03-24T03:45:10.790Z,100640.61
2019-03-24T03:47:40.525Z,100636.75
2019-03-24T03:50:10.397Z,100637.11
2019-03-24T03:52:39.629Z,100639.75
2019-03-24T03:55:08.838Z,100634.41
2019-03-24T03:57:37.819Z,100638.56
2019-03-24T04:00:09.154Z,100635.95
2019-03-24T04:02:38.125Z,100630.78
2019-03-24T04:05:07.670Z,100634.44
2019-03-24T04:07:36.787Z,100629.98
2019-03-24T04:10:06.227Z,100627.28
2019-03-24T04:12:35.188Z,100629.25
2019-03-24T04:15:05.629Z,100621.48
2019-03-24T04:17:34.561Z,100619.77
2019-03-24T04:20:03.807Z,100617.11
2019-03-24T04:22:32.807Z,100618.43
2019-03-24T04:25:01.875Z,100625.02
2019-03-24T04:27:30.828Z,100619.77
2019-03-24T04:29:59.827Z,100624.55
2019-03-24T04:32:28.856Z,100625.36
2019-03-24T04:34:57.792Z,100628.31
2019-03-24T04:37:27.026Z,100629.58
2019-03-24T04:39:56.069Z,100623.93
2019-03-24T04:42:24.946Z,100620.41
2019-03-24T04:44:53.956Z,100623.86
2019-03-24T04:47:22.906Z,100616.83
2019-03-24T04:49:51.828Z,100625.12
2019-03-24T04:52:20.749Z,100629.49
2019-03-24T04:54:49.627Z,100636.91
2019-03-24T04:57:18.620Z,100639.09
2019-03-24T04:59:47.506Z,100634.74
2019-03-24T05:02:16.510Z,100632.61
2019-03-24T05:04:45.631Z,100633.44
2019-03-24T05:07:15.267Z,100631.64
2019-03-24T05:09:44.908Z,100628.13
2019-03-24T05:12:13.828Z,100621.94
2019-03-24T05:14:42.787Z,100621.91
2019-03-24T05:17:11.826Z,100624.10
2019-03-24T05:19:40.836Z,100625.19
2019-03-24T05:22:09.909Z,100623.87
2019-03-24T05:24:38.946Z,100628.64
2019-03-24T05:27:08.069Z,100633.91
2019-03-24T05:29:36.907Z,100631.22
2019-03-24T05:32:05.932Z,100618.84
2019-03-24T05:34:34.856Z,100623.33
2019-03-24T05:37:04.186Z,100625.84
2019-03-24T05:39:33.049Z,100633.91
2019-03-24T05:42:01.944Z,100632.61
2019-03-24T05:44:30.815Z,100628.71
2019-03-24T05:47:00.001Z,100624.83
2019-03-24T05:49:28.928Z,100630.83
2019-03-24T05:51:57.787Z,100622.59
2019-03-24T05:54:26.647Z,100626.51
2019-03-24T05:56:55.589Z,100631.30
2019-03-24T05:59:24.488Z,100628.37
2019-03-24T06:01:53.368Z,100629.52
2019-03-24T06:04:22.289Z,100622.67
2019-03-24T06:06:51.148Z,100617.16
2019-03-24T06:09:19.987Z,100617.42
2019-03-24T06:11:48.928Z,100617.11
2019-03-24T06:14:17.786Z,100613.82
2019-03-24T06:16:46.651Z,100608.52
2019-03-24T06:19:15.567Z,100607.11
2019-03-24T06:21:44.447Z,100602.12
2019-03-24T06:24:13.387Z,100606.85
2019-03-24T06:26:42.366Z,100604.17
2019-03-24T06:29:11.209Z,100602.57
2019-03-24T06:31:40.090Z,100599.61
2019-03-24T06:34:09.030Z,100592.86
2019-03-24T06:36:37.983Z,100604.64
2019-03-24T06:39:08.389Z,100600.27
2019-03-24T06:41:37.293Z,100605.59
2019-03-24T06:44:06.310Z,100606.92
2019-03-24T06:46:35.232Z,100609.55
2019-03-24T06:49:04.168Z,100609.34
2019-03-24T06:51:33.048Z,100606.02
2019-03-24T06:54:01.988Z,100602.02
2019-03-24T06:56:30.819Z,100603.10
2019-03-24T06:58:59.687Z,100611.42
2019-03-24T07:01:28.723Z,100612.15
2019-03-24T07:03:57.593Z,100613.58
2019-03-24T07:06:26.448Z,100611.48
2019-03-24T07:08:55.390Z,100612.48
2019-03-24T07:11:24.228Z,100614.98
2019-03-24T07:13:53.069Z,100614.38
2019-03-24T07:16:22.008Z,100615.19
2019-03-24T07:18:50.851Z,100611.87
2019-03-24T07:21:19.688Z,100601.78
2019-03-24T07:23:48.628Z,100609.13
2019-03-24T07:26:17.569Z,100608.52
2019-03-24T07:28:46.428Z,100610.63
2019-03-24T07:31:15.369Z,100602.88
2019-03-24T07:33:44.207Z,100607.02
2019-03-24T07:36:13.061Z,100604.53
2019-03-24T07:38:41.987Z,100599.84
2019-03-24T07:41:10.875Z,100597.13
2019-03-24T07:43:39.747Z,100592.45
2019-03-24T07:46:08.767Z,100580.58
2019-03-24T07:48:37.629Z,100578.44
2019-03-24T07:51:06.610Z,100573.88
2019-03-24T07:53:35.550Z,100564.73
2019-03-24T07:56:04.512Z,100565.25
2019-03-24T07:58:33.367Z,100568.59
2019-03-24T08:01:02.308Z,100564.34
2019-03-24T08:03:31.168Z,100570.79
2019-03-24T08:06:00.008Z,100566.77
2019-03-24T08:08:28.948Z,100561.77
2019-03-24T08:10:57.807Z,100563.33
2019-03-24T08:13:26.666Z,100558.43
2019-03-24T08:15:55.589Z,100549.98
2019-03-24T08:18:29.790Z,100549.81
2019-03-24T08:20:55.027Z,100548.23
2019-03-24T08:23:24.148Z,100543.23
2019-03-24T08:25:53.029Z,100533.88
2019-03-24T08:28:23.196Z,100531.49
2019-03-24T08:30:52.450Z,100533.31
2019-03-24T08:33:21.468Z,100527.20
2019-03-24T08:35:50.347Z,100526.00
2019-03-24T08:38:19.405Z,100521.28
2019-03-24T08:40:48.306Z,100517.88
2019-03-24T08:43:17.167Z,100508.17
2019-03-24T08:45:46.110Z,100505.13
2019-03-24T08:48:14.966Z,100504.66
2019-03-24T08:50:43.835Z,100505.27
2019-03-24T08:53:12.766Z,100503.51
2019-03-24T08:55:41.647Z,100497.00
2019-03-24T08:58:10.509Z,100495.51
2019-03-24T09:00:39.551Z,100495.72
2019-03-24T09:03:08.428Z,100494.11
2019-03-24T09:05:37.429Z,100494.20
2019-03-24T09:08:06.588Z,100493.40
2019-03-24T09:10:35.466Z,100488.91
2019-03-24T09:13:04.456Z,100477.66
2019-03-24T09:15:33.429Z,100475.41
2019-03-24T09:18:02.289Z,100467.50
2019-03-24T09:20:40.986Z,100471.05
2019-03-24T09:23:01.808Z,100473.17
2019-03-24T09:25:30.844Z,100466.20
2019-03-24T09:27:59.727Z,100468.05
2019-03-24T09:30:31.029Z,100460.09
2019-03-24T09:33:00.109Z,100455.81
2019-03-24T09:35:28.968Z,100456.98
2019-03-24T09:37:58.009Z,100455.20
2019-03-24T09:40:31.310Z,100453.39
2019-03-24T09:43:01.004Z,100453.69
2019-03-24T09:45:31.293Z,100455.73
2019-03-24T09:48:00.772Z,100460.13
2019-03-24T09:50:29.945Z,100461.09
2019-03-24T09:52:59.065Z,100452.83
2019-03-24T09:55:28.232Z,100447.63
2019-03-24T09:57:57.270Z,100453.80
2019-03-24T10:00:26.211Z,100443.97
2019-03-24T10:02:55.071Z,100442.23
2019-03-24T10:05:23.910Z,100428.71
2019-03-24T10:07:52.870Z,100430.42
2019-03-24T10:10:21.729Z,100425.27
2019-03-24T10:12:50.609Z,100424.02
2019-03-24T10:15:19.570Z,100419.69
2019-03-24T10:17:48.552Z,100419.74
2019-03-24T10:20:17.669Z,100410.66
2019-03-24T10:22:46.629Z,100413.58
2019-03-24T10:25:15.610Z,100406.23
2019-03-24T10:27:44.472Z,100407.91
2019-03-24T10:30:13.704Z,100395.84
2019-03-24T10:32:42.695Z,100397.23
2019-03-24T10:35:11.830Z,100397.29
2019-03-24T10:37:40.869Z,100391.34
2019-03-24T10:40:10.654Z,100395.06
2019-03-24T10:42:39.622Z,100392.36
2019-03-24T10:45:09.097Z,100384.69
2019-03-24T10:47:38.277Z,100382.33
2019-03-24T10:50:09.166Z,100379.39
2019-03-24T10:52:38.468Z,100369.80
2019-03-24T10:55:09.748Z,100366.84
2019-03-24T10:57:38.788Z,100364.88
2019-03-24T11:00:10.676Z,100368.55
2019-03-24T11:02:39.627Z,100368.20
2019-03-24T11:05:09.096Z,100364.45
2019-03-24T11:07:38.187Z,100350.82
2019-03-24T11:10:08.849Z,100351.62
2019-03-24T11:12:37.796Z,100350.52
2019-03-24T11:15:08.770Z,100341.75
2019-03-24T11:17:37.828Z,100341.19
2019-03-24T11:20:08.088Z,100331.31
2019-03-24T11:22:37.112Z,100330.05
2019-03-24T11:25:08.210Z,100324.02
2019-03-24T11:27:37.268Z,100317.80
2019-03-24T11:30:11.614Z,100320.23
2019-03-24T11:32:41.268Z,100313.54
2019-03-24T11:35:11.549Z,100308.56
2019-03-24T11:37:40.628Z,100304.34
2019-03-24T11:40:10.411Z,100300.73
2019-03-24T11:42:39.377Z,100292.26
2019-03-24T11:45:09.928Z,100286.23
2019-03-24T11:47:38.887Z,100279.09
2019-03-24T11:50:08.848Z,100274.08
2019-03-24T11:52:37.987Z,100271.81
2019-03-24T11:55:09.469Z,100262.27
2019-03-24T11:57:38.351Z,100248.98
2019-03-24T12:00:12.768Z,100245.33
2019-03-24T12:02:41.750Z,100248.38
2019-03-24T12:05:11.139Z,100243.09
2019-03-24T12:07:40.063Z,100240.73
2019-03-24T12:10:10.646Z,100233.28
2019-03-24T12:12:39.746Z,100226.53
2019-03-24T12:15:09.286Z,100228.13
2019-03-24T12:17:38.170Z,100223.59
2019-03-24T12:20:08.605Z,100222.69
2019-03-24T12:22:37.747Z,100211.20
2019-03-24T12:25:07.107Z,100212.19
2019-03-24T12:27:36.068Z,100206.27
2019-03-24T12:30:07.408Z,100197.69
2019-03-24T12:32:36.466Z,100196.67
2019-03-24T12:35:07.787Z,100194.98
2019-03-24T12:37:37.012Z,100193.25
2019-03-24T12:40:10.762Z,100178.36
2019-03-24T12:42:40.028Z,100172.09
2019-03-24T12:45:09.948Z,100162.20
2019-03-24T12:47:38.828Z,100154.75
2019-03-24T12:50:09.984Z,100147.77
2019-03-24T12:52:39.250Z,100147.15
2019-03-24T12:55:08.594Z,100142.44
2019-03-24T12:57:37.766Z,100143.16
2019-03-24T13:00:12.524Z,100143.36
2019-03-24T13:02:41.636Z,100138.44
2019-03-24T13:05:12.197Z,100129.02
2019-03-24T13:07:41.345Z,100128.63
2019-03-24T13:10:10.398Z,100125.22
2019-03-24T13:12:39.475Z,100122.72
2019-03-24T13:15:08.916Z,100124.24
2019-03-24T13:17:38.545Z,100124.21
2019-03-24T13:20:22.588Z,100116.62
2019-03-24T13:22:51.708Z,100113.28
2019-03-24T13:25:21.453Z,100106.78
2019-03-24T13:27:51.617Z,100098.37
2019-03-24T13:30:28.765Z,100096.33
2019-03-24T13:33:04.145Z,100097.81
2019-03-24T13:35:40.657Z,100095.73
2019-03-24T13:38:11.852Z,100097.11
2019-03-24T13:40:43.305Z,100089.79
2019-03-24T13:43:20.460Z,100089.98
2019-03-24T13:45:51.496Z,100086.94
2019-03-24T13:48:21.377Z,100079.06
2019-03-24T13:50:59.221Z,100076.30
2019-03-24T13:53:31.027Z,100069.31
2019-03-24T13:56:02.336Z,100068.38
2019-03-24T13:58:32.060Z,100064.59
2019-03-24T14:01:01.363Z,100061.74
2019-03-24T14:03:40.355Z,100046.60
2019-03-24T14:06:10.216Z,100041.86
2019-03-24T14:08:39.255Z,100035.55
2019-03-24T14:11:08.404Z,100034.63
2019-03-24T14:13:37.404Z,100032.02
2019-03-24T14:16:06.493Z,100034.98
2019-03-24T14:18:35.554Z,100028.97
2019-03-24T14:21:04.623Z,100022.27
2019-03-24T14:23:33.674Z,100021.22
2019-03-24T14:26:02.709Z,100030.92
2019-03-24T14:28:31.834Z,100023.85
2019-03-24T14:31:00.923Z,100025.12
2019-03-24T14:33:29.861Z,100024.04
2019-03-24T14:35:58.794Z,100019.12
2019-03-24T14:38:27.779Z,100017.53
2019-03-24T14:40:57.024Z,100017.13
2019-03-24T14:43:26.264Z,100014.66
2019-03-24T14:45:55.394Z,100011.62
2019-03-24T14:48:24.515Z,100012.14
2019-03-24T14:50:54.969Z,100005.24
2019-03-24T14:53:24.264Z,100000.89
2019-03-24T14:55:53.584Z,100000.47
2019-03-24T14:58:22.595Z,99999.63
2019-03-24T15:00:51.744Z,99989.81
2019-03-24T15:03:20.884Z,99982.70
2019-03-24T15:05:50.014Z,99971.16
2019-03-24T15:08:19.156Z,99973.38
2019-03-24T15:10:48.400Z,99970.74
2019-03-24T15:13:17.563Z,99963.98
2019-03-24T15:15:46.784Z,99965.70
2019-03-24T15:18:15.906Z,99965.58
2019-03-24T15:20:45.143Z,99958.73
2019-03-24T15:23:14.063Z,99965.91
2019-03-24T15:25:43.235Z,99958.14
2019-03-24T15:28:12.326Z,99952.59
2019-03-24T15:30:41.544Z,99950.59
2019-03-24T15:33:10.744Z,99944.89
2019-03-24T15:35:39.875Z,99956.89
2019-03-24T15:38:09.161Z,99950.73
2019-03-24T15:40:38.364Z,99940.48
2019-03-24T15:43:07.584Z,99951.06
2019-03-24T15:45:36.835Z,99942.96
2019-03-24T15:48:06.075Z,99937.88
2019-03-24T15:50:35.215Z,99933.61
2019-03-24T15:53:04.515Z,99939.20
2019-03-24T15:55:33.641Z,99942.52
2019-03-24T15:58:02.715Z,99938.83
2019-03-24T16:00:42.983Z,99940.92
2019-03-24T16:03:12.205Z,99942.08
2019-03-24T16:05:41.384Z,99943.94
2019-03-24T16:08:10.685Z,99938.07
2019-03-24T16:10:39.829Z,99931.45
2019-03-24T16:13:09.064Z,99923.30
2019-03-24T16:15:38.283Z,99919.73
2019-03-24T16:18:07.357Z,99915.84
2019-03-24T16:20:36.424Z,99905.28
2019-03-24T16:23:05.724Z,99910.72
2019-03-24T16:25:34.963Z,99916.52
2019-03-24T16:28:04.136Z,99926.45
2019-03-24T16:30:33.370Z,99933.37
2019-03-24T16:33:02.594Z,99933.77
2019-03-24T16:35:31.804Z,99924.52
2019-03-24T16:38:01.003Z,99928.36
2019-03-24T16:40:30.235Z,99926.94
2019-03-24T16:42:59.321Z,99917.02
2019-03-24T16:45:28.476Z,99908.98
2019-03-24T16:47:57.655Z,99907.66
2019-03-24T16:50:26.797Z,99910.80
2019-03-24T16:52:56.016Z,99906.44
2019-03-24T16:55:25.067Z,99900.03
2019-03-24T16:57:54.234Z,99900.50
2019-03-24T17:00:23.877Z,99892.06
2019-03-24T17:02:52.957Z,99889.20
2019-03-24T17:05:22.135Z,99890.00
2019-03-24T17:07:51.275Z,99888.49
2019-03-24T17:10:20.436Z,99889.52
2019-03-24T17:12:49.597Z,99882.50
2019-03-24T17:15:18.898Z,99892.05
2019-03-24T17:17:47.975Z,99889.58
2019-03-24T17:20:17.116Z,99888.56
2019-03-24T17:22:46.256Z,99889.42
2019-03-24T17:25:15.416Z,99889.79
2019-03-24T17:27:44.557Z,99891.97
2019-03-24T17:30:14.084Z,99888.84
2019-03-24T17:32:43.154Z,99893.31
2019-03-24T17:35:12.234Z,99896.66
2019-03-24T17:37:41.465Z,99904.74
2019-03-24T17:40:12.459Z,99899.24
2019-03-24T17:42:41.921Z,99901.02
2019-03-24T17:45:12.505Z,99891.11
2019-03-24T17:47:41.739Z,99895.80
2019-03-24T17:50:12.234Z,99892.02
2019-03-24T17:52:41.580Z,99899.38
2019-03-24T17:55:10.936Z,99901.05
2019-03-24T17:57:40.086Z,99908.77
2019-03-24T18:00:12.535Z,99899.22
2019-03-24T18:02:41.677Z,99900.14
2019-03-24T18:05:11.044Z,99895.81
2019-03-24T18:07:40.435Z,99895.66
2019-03-24T18:10:11.084Z,99892.93
2019-03-24T18:12:40.224Z,99888.14
2019-03-24T18:15:10.876Z,99888.05
2019-03-24T18:17:40.015Z,99894.25
2019-03-24T18:20:10.856Z,99889.82
2019-03-24T18:22:40.128Z,99891.61
2019-03-24T18:25:10.535Z,99891.30
2019-03-24T18:27:39.677Z,99894.77
2019-03-24T18:30:11.096Z,99879.30
2019-03-24T18:32:41.580Z,99881.14
2019-03-24T18:35:10.635Z,99881.23
2019-03-24T18:37:41.274Z,99880.53
2019-03-24T18:40:11.135Z,99875.25
2019-03-24T18:42:40.396Z,99869.75
2019-03-24T18:45:11.855Z,99859.16
2019-03-24T18:47:41.086Z,99864.09
2019-03-24T18:50:11.834Z,99848.13
2019-03-24T18:52:42.535Z,99836.73
2019-03-24T18:55:12.834Z,99837.44
2019-03-24T18:57:42.374Z,99835.41
2019-03-24T19:00:13.415Z,99839.38
2019-03-24T19:02:42.739Z,99834.39
2019-03-24T19:05:12.226Z,99832.87
2019-03-24T19:07:41.505Z,99834.97
2019-03-24T19:10:13.005Z,99837.30
2019-03-24T19:12:42.374Z,99839.63
2019-03-24T19:15:14.347Z,99836.04
2019-03-24T19:17:43.544Z,99828.89
2019-03-24T19:20:14.202Z,99829.07
2019-03-24T19:22:43.494Z,99838.61
2019-03-24T19:25:12.936Z,99841.92
2019-03-24T19:27:42.296Z,99836.72
2019-03-24T19:30:14.686Z,99836.73
2019-03-24T19:32:43.895Z,99837.55
2019-03-24T19:35:13.499Z,99837.61
2019-03-24T19:37:44.758Z,99834.77
2019-03-24T19:40:33.435Z,99831.11
2019-03-24T19:43:02.723Z,99833.69
2019-03-24T19:45:32.019Z,99835.27
2019-03-24T19:48:01.421Z,99828.84
2019-03-24T19:50:30.595Z,99822.67
2019-03-24T19:52:59.794Z,99813.43
2019-03-24T19:55:29.097Z,99816.36
2019-03-24T19:57:58.776Z,99813.95
2019-03-24T20:00:28.077Z,99812.19
2019-03-24T20:02:57.355Z,99806.02
2019-03-24T20:05:27.008Z,99815.48
2019-03-24T20:07:56.375Z,99814.95
2019-03-24T20:10:25.774Z,99811.51
2019-03-24T20:12:55.497Z,99813.66
2019-03-24T20:15:24.705Z,99815.73
2019-03-24T20:17:53.974Z,99812.41
2019-03-24T20:20:23.177Z,99806.30
2019-03-24T20:22:56.837Z,99800.09
2019-03-24T20:25:23.414Z,99794.13
2019-03-24T20:27:52.543Z,99791.94
2019-03-24T20:30:21.996Z,99797.41
2019-03-24T20:32:51.215Z,99793.59
2019-03-24T20:35:20.298Z,99792.12
2019-03-24T20:37:49.484Z,99789.71
2019-03-24T20:40:18.746Z,99781.59
2019-03-24T20:42:47.814Z,99782.03
2019-03-24T20:45:17.054Z,99769.52
2019-03-24T20:47:46.544Z,99767.06
2019-03-24T20:50:15.796Z,99764.88
2019-03-24T20:52:44.774Z,99770.71
2019-03-24T20:55:14.094Z,99772.03
2019-03-24T20:57:43.134Z,99769.17
2019-03-24T21:00:13.776Z,99769.80
2019-03-24T21:02:42.983Z,99768.08
2019-03-24T21:05:12.155Z,99769.17
2019-03-24T21:07:41.315Z,99769.61
2019-03-24T21:10:10.654Z,99762.50
2019-03-24T21:12:41.075Z,99765.25
2019-03-24T21:15:11.689Z,99755.95
2019-03-24T21:17:41.018Z,99755.73
2019-03-24T21:20:10.490Z,99753.23
2019-03-24T21:22:39.621Z,99751.31
2019-03-24T21:25:09.258Z,99754.27
2019-03-24T21:27:38.417Z,99746.29
2019-03-24T21:30:10.054Z,99742.02
2019-03-24T21:32:39.177Z,99735.96
2019-03-24T21:35:08.796Z,99737.48
2019-03-24T21:37:37.954Z,99737.92
2019-03-24T21:40:07.859Z,99737.05
2019-03-24T21:42:36.939Z,99733.90
2019-03-24T21:45:10.034Z,99737.71
2019-03-24T21:47:39.236Z,99730.08
2019-03-24T21:50:08.377Z,99731.80
2019-03-24T21:52:37.497Z,99735.91
2019-03-24T21:55:07.955Z,99734.03
2019-03-24T21:57:37.016Z,99727.34
2019-03-24T22:00:09.516Z,99722.86
2019-03-24T22:02:38.555Z,99716.66
2019-03-24T22:05:08.016Z,99714.80
2019-03-24T22:07:36.875Z,99713.63
2019-03-24T22:10:07.677Z,99707.82
2019-03-24T22:12:36.524Z,99706.72
2019-03-24T22:15:09.581Z,99710.02
2019-03-24T22:17:38.496Z,99702.02
2019-03-24T22:20:07.956Z,99702.02
2019-03-24T22:22:36.814Z,99698.28
2019-03-24T22:25:06.742Z,99701.34
2019-03-24T22:27:35.596Z,99699.44
2019-03-24T22:30:06.156Z,99701.59
2019-03-24T22:32:35.076Z,99700.24
2019-03-24T22:35:04.354Z,99693.85
2019-03-24T22:37:33.315Z,99698.02
2019-03-24T22:40:02.236Z,99697.53
2019-03-24T22:42:31.076Z,99688.53
2019-03-24T22:44:59.940Z,99688.32
2019-03-24T22:47:28.876Z,99683.14
2019-03-24T22:49:57.734Z,99681.06
2019-03-24T22:52:26.599Z,99681.06
2019-03-24T22:54:55.495Z,99678.11
2019-03-24T22:57:24.458Z,99675.57
2019-03-24T22:59:53.324Z,99673.58
2019-03-24T23:02:22.416Z,99674.45
2019-03-24T23:04:51.256Z,99666.74
2019-03-24T23:07:20.125Z,99658.44
2019-03-24T23:09:49.215Z,99661.44
2019-03-24T23:12:18.075Z,99655.95
2019-03-24T23:14:46.996Z,99648.59
2019-03-24T23:17:15.923Z,99646.12
2019-03-24T23:19:44.795Z,99646.11
2019-03-24T23:22:13.656Z,99644.34
2019-03-24T23:24:42.556Z,99639.33
2019-03-24T23:27:11.516Z,99635.67
2019-03-24T23:29:40.356Z,99631.22
2019-03-24T23:32:09.360Z,99621.48
2019-03-24T23:34:38.183Z,99622.16
2019-03-24T23:37:07.034Z,99620.13
2019-03-24T23:39:35.957Z,99611.98
2019-03-24T23:42:04.994Z,99605.09
2019-03-24T23:44:33.836Z,99607.33
2019-03-24T23:47:02.737Z,99601.45
2019-03-24T23:49:31.697Z,99598.07
2019-03-24T23:52:00.536Z,99601.17
2019-03-24T23:54:29.481Z,99594.27
2019-03-24T23:56:58.404Z,99597.49
2019-03-24T23:59:27.235Z,99593.41
